sensor_id;sensor_type;location;lat;lon;timestamp;P1;durP1;ratioP1;P2;durP2;ratioP2
12356;SDS011;6243;51.244;6.774;2023-02-23T00:00:49;34.03;;;29.13;;
12356;SDS011;6243;51.244;6.774;2023-02-23T00:03:15;35.40;;;29.10;;
12356;SDS011;6243;51.244;6.774;2023-02-23T00:05:42;33.00;;;29.47;;
12356;SDS011;6243;51.244;6.774;2023-02-23T00:08:07;33.73;;;28.77;;
12356;SDS011;6243;51.244;6.774;2023-02-23T00:10:33;36.07;;;30.17;;
12356;SDS011;6243;51.244;6.774;2023-02-23T00:12:58;32.63;;;29.13;;
12356;SDS011;6243;51.244;6.774;2023-02-23T00:15:24;36.50;;;31.07;;
12356;SDS011;6243;51.244;6.774;2023-02-23T00:17:51;34.57;;;29.83;;
12356;SDS011;6243;51.244;6.774;2023-02-23T00:20:18;33.53;;;29.83;;
12356;SDS011;6243;51.244;6.774;2023-02-23T00:22:45;33.67;;;29.40;;
12356;SDS011;6243;51.244;6.774;2023-02-23T00:25:10;36.30;;;30.33;;
12356;SDS011;6243;51.244;6.774;2023-02-23T00:27:36;35.80;;;31.43;;
12356;SDS011;6243;51.244;6.774;2023-02-23T00:30:01;36.30;;;31.80;;
12356;SDS011;6243;51.244;6.774;2023-02-23T00:32:27;36.77;;;31.97;;
12356;SDS011;6243;51.244;6.774;2023-02-23T00:34:54;38.10;;;30.13;;
12356;SDS011;6243;51.244;6.774;2023-02-23T00:37:19;37.63;;;30.70;;
12356;SDS011;6243;51.244;6.774;2023-02-23T00:39:46;35.93;;;30.27;;
12356;SDS011;6243;51.244;6.774;2023-02-23T00:42:12;37.37;;;31.90;;
12356;SDS011;6243;51.244;6.774;2023-02-23T00:44:37;37.27;;;31.37;;
12356;SDS011;6243;51.244;6.774;2023-02-23T00:47:03;36.37;;;31.60;;
12356;SDS011;6243;51.244;6.774;2023-02-23T00:49:29;35.70;;;30.83;;
12356;SDS011;6243;51.244;6.774;2023-02-23T00:51:54;38.93;;;31.97;;
12356;SDS011;6243;51.244;6.774;2023-02-23T00:54:20;37.43;;;31.90;;
12356;SDS011;6243;51.244;6.774;2023-02-23T00:56:47;38.27;;;32.50;;
12356;SDS011;6243;51.244;6.774;2023-02-23T00:59:13;37.40;;;31.47;;
12356;SDS011;6243;51.244;6.774;2023-02-23T01:01:39;39.10;;;32.30;;
12356;SDS011;6243;51.244;6.774;2023-02-23T01:04:05;36.43;;;31.53;;
12356;SDS011;6243;51.244;6.774;2023-02-23T01:06:31;37.07;;;30.87;;
12356;SDS011;6243;51.244;6.774;2023-02-23T01:08:57;38.93;;;32.40;;
12356;SDS011;6243;51.244;6.774;2023-02-23T01:11:23;37.90;;;31.57;;
12356;SDS011;6243;51.244;6.774;2023-02-23T01:13:52;37.00;;;32.73;;
12356;SDS011;6243;51.244;6.774;2023-02-23T01:16:20;35.67;;;30.47;;
12356;SDS011;6243;51.244;6.774;2023-02-23T01:18:49;34.43;;;30.57;;
12356;SDS011;6243;51.244;6.774;2023-02-23T01:21:15;34.20;;;29.67;;
12356;SDS011;6243;51.244;6.774;2023-02-23T01:23:42;34.80;;;31.07;;
12356;SDS011;6243;51.244;6.774;2023-02-23T01:26:13;38.03;;;31.00;;
12356;SDS011;6243;51.244;6.774;2023-02-23T01:28:39;36.90;;;30.37;;
12356;SDS011;6243;51.244;6.774;2023-02-23T01:31:08;35.67;;;31.80;;
12356;SDS011;6243;51.244;6.774;2023-02-23T01:33:33;35.97;;;32.00;;
12356;SDS011;6243;51.244;6.774;2023-02-23T01:35:59;39.20;;;32.87;;
12356;SDS011;6243;51.244;6.774;2023-02-23T01:38:25;36.93;;;32.37;;
12356;SDS011;6243;51.244;6.774;2023-02-23T01:40:50;36.27;;;30.27;;
12356;SDS011;6243;51.244;6.774;2023-02-23T01:43:17;39.47;;;33.40;;
12356;SDS011;6243;51.244;6.774;2023-02-23T01:45:44;40.03;;;33.57;;
12356;SDS011;6243;51.244;6.774;2023-02-23T01:48:11;39.17;;;32.37;;
12356;SDS011;6243;51.244;6.774;2023-02-23T01:50:42;39.27;;;33.37;;
12356;SDS011;6243;51.244;6.774;2023-02-23T01:53:12;37.63;;;32.83;;
12356;SDS011;6243;51.244;6.774;2023-02-23T01:55:39;40.83;;;32.77;;
12356;SDS011;6243;51.244;6.774;2023-02-23T01:58:09;37.50;;;33.10;;
12356;SDS011;6243;51.244;6.774;2023-02-23T02:00:38;40.00;;;32.00;;
12356;SDS011;6243;51.244;6.774;2023-02-23T02:03:05;37.63;;;32.57;;
12356;SDS011;6243;51.244;6.774;2023-02-23T02:05:37;39.60;;;33.07;;
12356;SDS011;6243;51.244;6.774;2023-02-23T02:08:04;37.10;;;31.77;;
12356;SDS011;6243;51.244;6.774;2023-02-23T02:10:32;37.93;;;32.40;;
12356;SDS011;6243;51.244;6.774;2023-02-23T02:12:57;39.80;;;32.77;;
12356;SDS011;6243;51.244;6.774;2023-02-23T02:15:23;39.63;;;33.20;;
12356;SDS011;6243;51.244;6.774;2023-02-23T02:17:57;42.40;;;34.73;;
12356;SDS011;6243;51.244;6.774;2023-02-23T02:20:31;43.77;;;35.47;;
12356;SDS011;6243;51.244;6.774;2023-02-23T02:26:33;41.97;;;34.50;;
12356;SDS011;6243;51.244;6.774;2023-02-23T02:29:25;42.80;;;35.33;;
12356;SDS011;6243;51.244;6.774;2023-02-23T02:35:07;42.03;;;34.77;;
12356;SDS011;6243;51.244;6.774;2023-02-23T02:37:52;43.87;;;35.43;;
12356;SDS011;6243;51.244;6.774;2023-02-23T02:40:27;41.20;;;34.93;;
12356;SDS011;6243;51.244;6.774;2023-02-23T02:43:00;44.07;;;35.77;;
12356;SDS011;6243;51.244;6.774;2023-02-23T02:45:33;46.23;;;35.87;;
12356;SDS011;6243;51.244;6.774;2023-02-23T02:48:09;43.57;;;35.03;;
12356;SDS011;6243;51.244;6.774;2023-02-23T02:50:41;40.87;;;34.33;;
12356;SDS011;6243;51.244;6.774;2023-02-23T02:53:12;46.43;;;37.00;;
12356;SDS011;6243;51.244;6.774;2023-02-23T02:55:42;45.60;;;36.30;;
12356;SDS011;6243;51.244;6.774;2023-02-23T02:58:10;47.50;;;37.40;;
12356;SDS011;6243;51.244;6.774;2023-02-23T03:00:37;49.70;;;37.67;;
12356;SDS011;6243;51.244;6.774;2023-02-23T03:03:04;46.23;;;36.83;;
12356;SDS011;6243;51.244;6.774;2023-02-23T03:05:38;49.30;;;37.30;;
12356;SDS011;6243;51.244;6.774;2023-02-23T03:08:08;45.87;;;36.63;;
12356;SDS011;6243;51.244;6.774;2023-02-23T03:10:41;47.77;;;36.87;;
12356;SDS011;6243;51.244;6.774;2023-02-23T03:13:14;44.93;;;36.87;;
12356;SDS011;6243;51.244;6.774;2023-02-23T03:15:50;43.43;;;36.27;;
12356;SDS011;6243;51.244;6.774;2023-02-23T03:18:30;46.10;;;36.37;;
12356;SDS011;6243;51.244;6.774;2023-02-23T03:21:09;42.73;;;35.07;;
12356;SDS011;6243;51.244;6.774;2023-02-23T03:23:43;42.77;;;35.63;;
12356;SDS011;6243;51.244;6.774;2023-02-23T03:26:18;46.53;;;35.97;;
12356;SDS011;6243;51.244;6.774;2023-02-23T03:28:48;47.00;;;36.00;;
12356;SDS011;6243;51.244;6.774;2023-02-23T03:31:25;45.30;;;35.80;;
12356;SDS011;6243;51.244;6.774;2023-02-23T03:33:54;46.70;;;37.13;;
12356;SDS011;6243;51.244;6.774;2023-02-23T03:36:27;48.73;;;38.73;;
12356;SDS011;6243;51.244;6.774;2023-02-23T03:39:03;50.47;;;38.27;;
12356;SDS011;6243;51.244;6.774;2023-02-23T03:41:35;44.70;;;36.13;;
12356;SDS011;6243;51.244;6.774;2023-02-23T03:44:05;46.27;;;36.73;;
12356;SDS011;6243;51.244;6.774;2023-02-23T03:46:35;49.43;;;37.77;;
12356;SDS011;6243;51.244;6.774;2023-02-23T03:49:03;51.93;;;38.87;;
12356;SDS011;6243;51.244;6.774;2023-02-23T03:51:34;48.17;;;38.20;;
12356;SDS011;6243;51.244;6.774;2023-02-23T03:54:06;48.77;;;37.60;;
12356;SDS011;6243;51.244;6.774;2023-02-23T03:56:38;49.07;;;37.00;;
12356;SDS011;6243;51.244;6.774;2023-02-23T03:59:07;43.50;;;35.17;;
12356;SDS011;6243;51.244;6.774;2023-02-23T04:01:35;45.53;;;34.60;;
12356;SDS011;6243;51.244;6.774;2023-02-23T04:04:03;48.10;;;37.20;;
12356;SDS011;6243;51.244;6.774;2023-02-23T04:06:33;45.37;;;35.57;;
12356;SDS011;6243;51.244;6.774;2023-02-23T04:09:02;47.67;;;36.87;;
12356;SDS011;6243;51.244;6.774;2023-02-23T04:11:32;48.93;;;36.87;;
12356;SDS011;6243;51.244;6.774;2023-02-23T04:14:06;49.63;;;36.00;;
12356;SDS011;6243;51.244;6.774;2023-02-23T04:16:39;48.80;;;37.00;;
12356;SDS011;6243;51.244;6.774;2023-02-23T04:19:06;46.33;;;37.40;;
12356;SDS011;6243;51.244;6.774;2023-02-23T04:21:32;49.73;;;36.60;;
12356;SDS011;6243;51.244;6.774;2023-02-23T04:23:57;47.67;;;36.87;;
12356;SDS011;6243;51.244;6.774;2023-02-23T04:26:24;47.83;;;36.37;;
12356;SDS011;6243;51.244;6.774;2023-02-23T04:28:50;53.13;;;37.50;;
12356;SDS011;6243;51.244;6.774;2023-02-23T04:31:15;48.43;;;36.17;;
12356;SDS011;6243;51.244;6.774;2023-02-23T04:33:41;47.33;;;35.63;;
12356;SDS011;6243;51.244;6.774;2023-02-23T04:36:06;47.17;;;35.67;;
12356;SDS011;6243;51.244;6.774;2023-02-23T04:38:32;45.43;;;34.50;;
12356;SDS011;6243;51.244;6.774;2023-02-23T04:40:57;47.47;;;35.50;;
12356;SDS011;6243;51.244;6.774;2023-02-23T04:43:24;43.60;;;34.07;;
12356;SDS011;6243;51.244;6.774;2023-02-23T04:45:50;44.60;;;34.37;;
12356;SDS011;6243;51.244;6.774;2023-02-23T04:48:15;44.63;;;35.43;;
12356;SDS011;6243;51.244;6.774;2023-02-23T04:50:41;51.60;;;36.50;;
12356;SDS011;6243;51.244;6.774;2023-02-23T04:53:06;47.53;;;34.80;;
12356;SDS011;6243;51.244;6.774;2023-02-23T04:55:32;48.20;;;35.37;;
12356;SDS011;6243;51.244;6.774;2023-02-23T04:57:57;47.83;;;35.87;;
12356;SDS011;6243;51.244;6.774;2023-02-23T05:00:25;45.40;;;34.97;;
12356;SDS011;6243;51.244;6.774;2023-02-23T05:02:51;47.33;;;34.97;;
12356;SDS011;6243;51.244;6.774;2023-02-23T05:05:17;48.17;;;35.60;;
12356;SDS011;6243;51.244;6.774;2023-02-23T05:07:43;46.00;;;33.70;;
12356;SDS011;6243;51.244;6.774;2023-02-23T05:10:09;47.83;;;36.13;;
12356;SDS011;6243;51.244;6.774;2023-02-23T05:12:35;46.87;;;35.97;;
12356;SDS011;6243;51.244;6.774;2023-02-23T05:15:01;45.17;;;34.53;;
12356;SDS011;6243;51.244;6.774;2023-02-23T05:17:27;45.10;;;34.67;;
12356;SDS011;6243;51.244;6.774;2023-02-23T05:19:53;46.60;;;34.37;;
12356;SDS011;6243;51.244;6.774;2023-02-23T05:22:18;44.50;;;35.97;;
12356;SDS011;6243;51.244;6.774;2023-02-23T05:24:44;46.23;;;35.80;;
12356;SDS011;6243;51.244;6.774;2023-02-23T05:27:09;46.47;;;35.40;;
12356;SDS011;6243;51.244;6.774;2023-02-23T05:29:35;48.40;;;35.23;;
12356;SDS011;6243;51.244;6.774;2023-02-23T05:32:01;49.03;;;35.93;;
12356;SDS011;6243;51.244;6.774;2023-02-23T05:34:28;51.33;;;36.80;;
12356;SDS011;6243;51.244;6.774;2023-02-23T05:36:53;47.07;;;34.97;;
12356;SDS011;6243;51.244;6.774;2023-02-23T05:39:19;45.83;;;35.53;;
12356;SDS011;6243;51.244;6.774;2023-02-23T05:41:45;46.37;;;36.17;;
12356;SDS011;6243;51.244;6.774;2023-02-23T05:44:10;46.07;;;36.17;;
12356;SDS011;6243;51.244;6.774;2023-02-23T05:46:36;48.47;;;36.37;;
12356;SDS011;6243;51.244;6.774;2023-02-23T05:49:01;47.27;;;35.50;;
12356;SDS011;6243;51.244;6.774;2023-02-23T05:51:29;49.90;;;35.27;;
12356;SDS011;6243;51.244;6.774;2023-02-23T05:53:56;48.90;;;35.03;;
12356;SDS011;6243;51.244;6.774;2023-02-23T05:56:21;47.57;;;36.57;;
12356;SDS011;6243;51.244;6.774;2023-02-23T05:58:47;49.47;;;35.50;;
12356;SDS011;6243;51.244;6.774;2023-02-23T06:01:13;48.40;;;36.53;;
12356;SDS011;6243;51.244;6.774;2023-02-23T06:03:39;49.60;;;36.80;;
12356;SDS011;6243;51.244;6.774;2023-02-23T06:06:05;48.80;;;36.97;;
12356;SDS011;6243;51.244;6.774;2023-02-23T06:08:32;49.57;;;36.63;;
12356;SDS011;6243;51.244;6.774;2023-02-23T06:10:58;49.60;;;37.60;;
12356;SDS011;6243;51.244;6.774;2023-02-23T06:13:23;53.10;;;38.23;;
12356;SDS011;6243;51.244;6.774;2023-02-23T06:15:49;48.07;;;36.67;;
12356;SDS011;6243;51.244;6.774;2023-02-23T06:18:14;49.40;;;36.70;;
12356;SDS011;6243;51.244;6.774;2023-02-23T06:20:40;50.70;;;36.67;;
12356;SDS011;6243;51.244;6.774;2023-02-23T06:23:05;50.80;;;37.60;;
12356;SDS011;6243;51.244;6.774;2023-02-23T06:25:32;50.97;;;37.30;;
12356;SDS011;6243;51.244;6.774;2023-02-23T06:27:58;49.67;;;37.83;;
12356;SDS011;6243;51.244;6.774;2023-02-23T06:30:24;47.83;;;35.97;;
12356;SDS011;6243;51.244;6.774;2023-02-23T06:32:49;55.47;;;39.40;;
12356;SDS011;6243;51.244;6.774;2023-02-23T06:35:15;50.00;;;38.57;;
12356;SDS011;6243;51.244;6.774;2023-02-23T06:37:41;49.13;;;36.57;;
12356;SDS011;6243;51.244;6.774;2023-02-23T06:40:07;51.53;;;37.33;;
12356;SDS011;6243;51.244;6.774;2023-02-23T06:42:34;47.27;;;35.97;;
12356;SDS011;6243;51.244;6.774;2023-02-23T06:45:00;46.83;;;36.97;;
12356;SDS011;6243;51.244;6.774;2023-02-23T06:47:25;47.80;;;34.47;;
12356;SDS011;6243;51.244;6.774;2023-02-23T06:49:51;50.37;;;37.37;;
12356;SDS011;6243;51.244;6.774;2023-02-23T06:52:16;52.13;;;38.57;;
12356;SDS011;6243;51.244;6.774;2023-02-23T06:54:42;45.13;;;35.60;;
12356;SDS011;6243;51.244;6.774;2023-02-23T06:57:07;47.13;;;35.00;;
12356;SDS011;6243;51.244;6.774;2023-02-23T06:59:35;50.10;;;37.20;;
12356;SDS011;6243;51.244;6.774;2023-02-23T07:02:00;45.47;;;35.27;;
12356;SDS011;6243;51.244;6.774;2023-02-23T07:04:26;48.70;;;36.50;;
12356;SDS011;6243;51.244;6.774;2023-02-23T07:06:51;48.57;;;36.30;;
12356;SDS011;6243;51.244;6.774;2023-02-23T07:09:17;45.43;;;35.50;;
12356;SDS011;6243;51.244;6.774;2023-02-23T07:11:42;46.30;;;36.33;;
12356;SDS011;6243;51.244;6.774;2023-02-23T07:14:08;47.17;;;36.10;;
12356;SDS011;6243;51.244;6.774;2023-02-23T07:16:36;46.90;;;35.17;;
12356;SDS011;6243;51.244;6.774;2023-02-23T07:19:03;43.10;;;35.07;;
12356;SDS011;6243;51.244;6.774;2023-02-23T07:21:29;45.07;;;34.43;;
12356;SDS011;6243;51.244;6.774;2023-02-23T07:23:55;46.90;;;36.10;;
12356;SDS011;6243;51.244;6.774;2023-02-23T07:26:20;46.67;;;35.20;;
12356;SDS011;6243;51.244;6.774;2023-02-23T07:28:46;44.80;;;35.67;;
12356;SDS011;6243;51.244;6.774;2023-02-23T07:31:11;46.07;;;35.57;;
12356;SDS011;6243;51.244;6.774;2023-02-23T07:33:38;49.80;;;37.20;;
12356;SDS011;6243;51.244;6.774;2023-02-23T07:36:04;49.10;;;35.73;;
12356;SDS011;6243;51.244;6.774;2023-02-23T07:38:30;43.63;;;35.97;;
12356;SDS011;6243;51.244;6.774;2023-02-23T07:40:56;46.77;;;35.03;;
12356;SDS011;6243;51.244;6.774;2023-02-23T07:43:21;47.47;;;36.53;;
12356;SDS011;6243;51.244;6.774;2023-02-23T07:45:47;45.17;;;34.90;;
12356;SDS011;6243;51.244;6.774;2023-02-23T07:48:12;43.77;;;36.17;;
12356;SDS011;6243;51.244;6.774;2023-02-23T07:50:39;47.67;;;35.60;;
12356;SDS011;6243;51.244;6.774;2023-02-23T07:53:05;44.40;;;33.07;;
12356;SDS011;6243;51.244;6.774;2023-02-23T07:55:31;43.60;;;32.70;;
12356;SDS011;6243;51.244;6.774;2023-02-23T07:57:56;45.00;;;34.10;;
12356;SDS011;6243;51.244;6.774;2023-02-23T08:00:22;51.23;;;34.27;;
12356;SDS011;6243;51.244;6.774;2023-02-23T08:02:48;47.27;;;34.00;;
12356;SDS011;6243;51.244;6.774;2023-02-23T08:05:13;48.87;;;32.73;;
12356;SDS011;6243;51.244;6.774;2023-02-23T08:07:40;50.00;;;34.80;;
12356;SDS011;6243;51.244;6.774;2023-02-23T08:10:06;53.77;;;36.00;;
12356;SDS011;6243;51.244;6.774;2023-02-23T08:12:32;53.40;;;36.87;;
12356;SDS011;6243;51.244;6.774;2023-02-23T08:14:58;52.33;;;34.93;;
12356;SDS011;6243;51.244;6.774;2023-02-23T08:17:23;59.07;;;38.20;;
12356;SDS011;6243;51.244;6.774;2023-02-23T08:19:49;53.53;;;36.80;;
12356;SDS011;6243;51.244;6.774;2023-02-23T08:22:14;51.13;;;34.97;;
12356;SDS011;6243;51.244;6.774;2023-02-23T08:24:41;57.67;;;37.73;;
12356;SDS011;6243;51.244;6.774;2023-02-23T08:27:07;53.53;;;36.30;;
12356;SDS011;6243;51.244;6.774;2023-02-23T08:29:32;54.90;;;36.73;;
12356;SDS011;6243;51.244;6.774;2023-02-23T08:31:59;53.53;;;36.57;;
12356;SDS011;6243;51.244;6.774;2023-02-23T08:34:25;53.60;;;35.33;;
12356;SDS011;6243;51.244;6.774;2023-02-23T08:36:51;54.30;;;34.67;;
12356;SDS011;6243;51.244;6.774;2023-02-23T08:39:16;53.27;;;34.93;;
12356;SDS011;6243;51.244;6.774;2023-02-23T08:41:43;50.83;;;34.20;;
12356;SDS011;6243;51.244;6.774;2023-02-23T08:44:09;52.57;;;35.43;;
12356;SDS011;6243;51.244;6.774;2023-02-23T08:46:34;50.17;;;34.77;;
12356;SDS011;6243;51.244;6.774;2023-02-23T08:49:00;50.13;;;34.63;;
12356;SDS011;6243;51.244;6.774;2023-02-23T08:51:25;52.13;;;34.97;;
12356;SDS011;6243;51.244;6.774;2023-02-23T08:53:51;50.33;;;33.37;;
12356;SDS011;6243;51.244;6.774;2023-02-23T08:56:17;49.93;;;34.17;;
12356;SDS011;6243;51.244;6.774;2023-02-23T08:58:43;48.23;;;33.90;;
12356;SDS011;6243;51.244;6.774;2023-02-23T09:01:14;49.03;;;33.50;;
12356;SDS011;6243;51.244;6.774;2023-02-23T09:03:40;50.97;;;33.07;;
12356;SDS011;6243;51.244;6.774;2023-02-23T09:06:07;49.80;;;35.07;;
12356;SDS011;6243;51.244;6.774;2023-02-23T09:08:34;48.87;;;33.10;;
12356;SDS011;6243;51.244;6.774;2023-02-23T09:11:00;48.73;;;33.93;;
12356;SDS011;6243;51.244;6.774;2023-02-23T09:13:25;47.80;;;32.57;;
12356;SDS011;6243;51.244;6.774;2023-02-23T09:15:52;44.77;;;31.80;;
12356;SDS011;6243;51.244;6.774;2023-02-23T09:18:18;46.00;;;32.17;;
12356;SDS011;6243;51.244;6.774;2023-02-23T09:20:43;46.47;;;32.83;;
12356;SDS011;6243;51.244;6.774;2023-02-23T09:23:09;45.67;;;32.03;;
12356;SDS011;6243;51.244;6.774;2023-02-23T09:25:38;47.53;;;32.07;;
12356;SDS011;6243;51.244;6.774;2023-02-23T09:28:04;43.40;;;30.57;;
12356;SDS011;6243;51.244;6.774;2023-02-23T09:30:29;44.13;;;30.17;;
12356;SDS011;6243;51.244;6.774;2023-02-23T09:32:56;46.57;;;33.17;;
12356;SDS011;6243;51.244;6.774;2023-02-23T09:35:22;42.93;;;29.87;;
12356;SDS011;6243;51.244;6.774;2023-02-23T09:37:49;46.47;;;31.20;;
12356;SDS011;6243;51.244;6.774;2023-02-23T09:40:17;44.33;;;29.50;;
12356;SDS011;6243;51.244;6.774;2023-02-23T09:42:45;43.63;;;30.60;;
12356;SDS011;6243;51.244;6.774;2023-02-23T09:45:18;41.97;;;29.37;;
12356;SDS011;6243;51.244;6.774;2023-02-23T09:47:53;44.23;;;29.20;;
12356;SDS011;6243;51.244;6.774;2023-02-23T09:50:29;42.23;;;29.70;;
12356;SDS011;6243;51.244;6.774;2023-02-23T09:52:56;43.07;;;30.37;;
12356;SDS011;6243;51.244;6.774;2023-02-23T09:55:27;42.47;;;30.67;;
12356;SDS011;6243;51.244;6.774;2023-02-23T09:57:53;41.57;;;28.87;;
12356;SDS011;6243;51.244;6.774;2023-02-23T10:00:22;47.13;;;30.03;;
12356;SDS011;6243;51.244;6.774;2023-02-23T10:03:05;43.03;;;29.83;;
12356;SDS011;6243;51.244;6.774;2023-02-23T10:05:38;43.37;;;28.50;;
12356;SDS011;6243;51.244;6.774;2023-02-23T10:08:10;41.80;;;28.97;;
12356;SDS011;6243;51.244;6.774;2023-02-23T10:10:46;42.07;;;28.30;;
12356;SDS011;6243;51.244;6.774;2023-02-23T10:13:15;44.30;;;30.67;;
12356;SDS011;6243;51.244;6.774;2023-02-23T10:15:46;46.33;;;29.87;;
12356;SDS011;6243;51.244;6.774;2023-02-23T10:18:21;44.70;;;30.33;;
12356;SDS011;6243;51.244;6.774;2023-02-23T10:20:53;45.33;;;30.20;;
12356;SDS011;6243;51.244;6.774;2023-02-23T10:23:26;43.50;;;29.10;;
12356;SDS011;6243;51.244;6.774;2023-02-23T10:25:55;45.37;;;30.33;;
12356;SDS011;6243;51.244;6.774;2023-02-23T10:28:23;41.63;;;29.27;;
12356;SDS011;6243;51.244;6.774;2023-02-23T10:30:49;46.27;;;30.57;;
12356;SDS011;6243;51.244;6.774;2023-02-23T10:33:19;46.47;;;31.23;;
12356;SDS011;6243;51.244;6.774;2023-02-23T10:35:47;49.37;;;31.17;;
12356;SDS011;6243;51.244;6.774;2023-02-23T10:38:16;42.63;;;28.63;;
12356;SDS011;6243;51.244;6.774;2023-02-23T10:40:44;42.43;;;28.87;;
12356;SDS011;6243;51.244;6.774;2023-02-23T10:43:13;39.63;;;26.20;;
12356;SDS011;6243;51.244;6.774;2023-02-23T10:45:40;40.13;;;26.50;;
12356;SDS011;6243;51.244;6.774;2023-02-23T10:48:12;42.13;;;26.23;;
12356;SDS011;6243;51.244;6.774;2023-02-23T10:50:41;37.60;;;24.87;;
12356;SDS011;6243;51.244;6.774;2023-02-23T10:53:10;39.43;;;25.47;;
12356;SDS011;6243;51.244;6.774;2023-02-23T10:55:38;37.80;;;24.30;;
12356;SDS011;6243;51.244;6.774;2023-02-23T10:58:07;40.53;;;24.40;;
12356;SDS011;6243;51.244;6.774;2023-02-23T11:00:36;36.57;;;24.60;;
12356;SDS011;6243;51.244;6.774;2023-02-23T11:03:14;36.17;;;24.50;;
12356;SDS011;6243;51.244;6.774;2023-02-23T11:05:45;36.17;;;24.07;;
12356;SDS011;6243;51.244;6.774;2023-02-23T11:08:19;37.00;;;23.40;;
12356;SDS011;6243;51.244;6.774;2023-02-23T11:10:54;35.27;;;23.67;;
12356;SDS011;6243;51.244;6.774;2023-02-23T11:13:21;33.60;;;23.00;;
12356;SDS011;6243;51.244;6.774;2023-02-23T11:15:47;33.40;;;22.50;;
12356;SDS011;6243;51.244;6.774;2023-02-23T11:18:17;33.73;;;23.57;;
12356;SDS011;6243;51.244;6.774;2023-02-23T11:20:46;37.13;;;23.57;;
12356;SDS011;6243;51.244;6.774;2023-02-23T11:23:14;35.13;;;24.00;;
12356;SDS011;6243;51.244;6.774;2023-02-23T11:25:46;40.87;;;24.17;;
12356;SDS011;6243;51.244;6.774;2023-02-23T11:28:14;33.37;;;22.83;;
12356;SDS011;6243;51.244;6.774;2023-02-23T11:30:42;37.20;;;23.23;;
12356;SDS011;6243;51.244;6.774;2023-02-23T11:33:12;36.17;;;23.53;;
12356;SDS011;6243;51.244;6.774;2023-02-23T11:35:41;35.97;;;23.63;;
12356;SDS011;6243;51.244;6.774;2023-02-23T11:38:15;37.07;;;24.43;;
12356;SDS011;6243;51.244;6.774;2023-02-23T11:40:56;38.57;;;25.83;;
12356;SDS011;6243;51.244;6.774;2023-02-23T11:43:23;38.40;;;25.57;;
12356;SDS011;6243;51.244;6.774;2023-02-23T11:45:49;41.80;;;26.97;;
12356;SDS011;6243;51.244;6.774;2023-02-23T11:48:18;39.80;;;26.27;;
12356;SDS011;6243;51.244;6.774;2023-02-23T11:50:47;35.67;;;24.17;;
12356;SDS011;6243;51.244;6.774;2023-02-23T11:53:16;39.40;;;24.70;;
12356;SDS011;6243;51.244;6.774;2023-02-23T11:55:45;34.17;;;23.63;;
12356;SDS011;6243;51.244;6.774;2023-02-23T11:58:19;32.60;;;22.17;;
12356;SDS011;6243;51.244;6.774;2023-02-23T12:00:55;28.00;;;19.87;;
12356;SDS011;6243;51.244;6.774;2023-02-23T12:03:22;30.43;;;19.33;;
12356;SDS011;6243;51.244;6.774;2023-02-23T12:05:50;32.17;;;21.43;;
12356;SDS011;6243;51.244;6.774;2023-02-23T12:08:22;31.00;;;20.93;;
12356;SDS011;6243;51.244;6.774;2023-02-23T12:10:59;30.33;;;20.03;;
12356;SDS011;6243;51.244;6.774;2023-02-23T12:13:29;27.47;;;19.87;;
12356;SDS011;6243;51.244;6.774;2023-02-23T12:15:59;27.07;;;19.60;;
12356;SDS011;6243;51.244;6.774;2023-02-23T12:18:35;28.57;;;20.37;;
12356;SDS011;6243;51.244;6.774;2023-02-23T12:21:16;31.53;;;21.77;;
12356;SDS011;6243;51.244;6.774;2023-02-23T12:23:49;31.33;;;21.17;;
12356;SDS011;6243;51.244;6.774;2023-02-23T12:26:19;29.17;;;20.57;;
12356;SDS011;6243;51.244;6.774;2023-02-23T12:28:47;31.17;;;21.80;;
12356;SDS011;6243;51.244;6.774;2023-02-23T12:31:20;29.47;;;20.43;;
12356;SDS011;6243;51.244;6.774;2023-02-23T12:33:52;29.27;;;19.43;;
12356;SDS011;6243;51.244;6.774;2023-02-23T12:36:22;27.90;;;18.93;;
12356;SDS011;6243;51.244;6.774;2023-02-23T12:38:53;25.33;;;18.33;;
12356;SDS011;6243;51.244;6.774;2023-02-23T12:41:25;28.33;;;17.93;;
12356;SDS011;6243;51.244;6.774;2023-02-23T12:44:00;26.97;;;17.90;;
12356;SDS011;6243;51.244;6.774;2023-02-23T12:46:34;24.77;;;17.07;;
12356;SDS011;6243;51.244;6.774;2023-02-23T12:49:05;24.70;;;16.80;;
12356;SDS011;6243;51.244;6.774;2023-02-23T12:51:37;21.90;;;15.43;;
12356;SDS011;6243;51.244;6.774;2023-02-23T12:54:15;21.60;;;15.07;;
12356;SDS011;6243;51.244;6.774;2023-02-23T12:56:50;22.83;;;14.77;;
12356;SDS011;6243;51.244;6.774;2023-02-23T12:59:30;23.73;;;16.33;;
12356;SDS011;6243;51.244;6.774;2023-02-23T13:02:11;23.27;;;16.20;;
12356;SDS011;6243;51.244;6.774;2023-02-23T13:04:56;25.10;;;16.87;;
12356;SDS011;6243;51.244;6.774;2023-02-23T13:07:36;21.27;;;15.07;;
12356;SDS011;6243;51.244;6.774;2023-02-23T13:10:11;22.10;;;15.33;;
12356;SDS011;6243;51.244;6.774;2023-02-23T13:12:48;21.40;;;14.37;;
12356;SDS011;6243;51.244;6.774;2023-02-23T13:15:22;24.13;;;16.43;;
12356;SDS011;6243;51.244;6.774;2023-02-23T13:17:55;27.57;;;17.60;;
12356;SDS011;6243;51.244;6.774;2023-02-23T13:20:26;25.13;;;16.70;;
12356;SDS011;6243;51.244;6.774;2023-02-23T13:22:57;26.37;;;16.70;;
12356;SDS011;6243;51.244;6.774;2023-02-23T13:25:35;24.90;;;17.33;;
12356;SDS011;6243;51.244;6.774;2023-02-23T13:28:05;26.30;;;18.37;;
12356;SDS011;6243;51.244;6.774;2023-02-23T13:30:38;27.20;;;18.97;;
12356;SDS011;6243;51.244;6.774;2023-02-23T13:33:07;25.23;;;17.90;;
12356;SDS011;6243;51.244;6.774;2023-02-23T13:35:42;24.17;;;17.63;;
12356;SDS011;6243;51.244;6.774;2023-02-23T13:38:10;25.20;;;16.93;;
12356;SDS011;6243;51.244;6.774;2023-02-23T13:40:44;27.13;;;18.03;;
12356;SDS011;6243;51.244;6.774;2023-02-23T13:43:16;25.10;;;17.77;;
12356;SDS011;6243;51.244;6.774;2023-02-23T13:45:50;26.00;;;17.67;;
12356;SDS011;6243;51.244;6.774;2023-02-23T13:48:26;27.83;;;18.90;;
12356;SDS011;6243;51.244;6.774;2023-02-23T13:51:00;25.20;;;17.07;;
12356;SDS011;6243;51.244;6.774;2023-02-23T13:53:38;24.97;;;17.53;;
12356;SDS011;6243;51.244;6.774;2023-02-23T13:56:08;23.73;;;17.20;;
12356;SDS011;6243;51.244;6.774;2023-02-23T13:58:39;25.20;;;17.33;;
12356;SDS011;6243;51.244;6.774;2023-02-23T14:01:13;27.80;;;18.27;;
12356;SDS011;6243;51.244;6.774;2023-02-23T14:03:43;26.33;;;17.60;;
12356;SDS011;6243;51.244;6.774;2023-02-23T14:06:12;27.63;;;18.73;;
12356;SDS011;6243;51.244;6.774;2023-02-23T14:08:39;25.87;;;17.93;;
12356;SDS011;6243;51.244;6.774;2023-02-23T14:11:10;29.80;;;18.97;;
12356;SDS011;6243;51.244;6.774;2023-02-23T14:13:57;28.87;;;19.30;;
12356;SDS011;6243;51.244;6.774;2023-02-23T14:16:24;26.03;;;17.80;;
12356;SDS011;6243;51.244;6.774;2023-02-23T14:18:54;26.20;;;17.73;;
12356;SDS011;6243;51.244;6.774;2023-02-23T14:21:29;26.70;;;17.90;;
12356;SDS011;6243;51.244;6.774;2023-02-23T14:24:03;24.33;;;17.57;;
12356;SDS011;6243;51.244;6.774;2023-02-23T14:26:43;27.40;;;18.70;;
12356;SDS011;6243;51.244;6.774;2023-02-23T14:31:55;28.33;;;18.23;;
12356;SDS011;6243;51.244;6.774;2023-02-23T14:34:40;28.57;;;18.43;;
12356;SDS011;6243;51.244;6.774;2023-02-23T14:37:13;28.07;;;18.87;;
12356;SDS011;6243;51.244;6.774;2023-02-23T14:39:41;26.63;;;17.57;;
12356;SDS011;6243;51.244;6.774;2023-02-23T14:42:13;27.27;;;18.23;;
12356;SDS011;6243;51.244;6.774;2023-02-23T14:44:47;26.03;;;18.87;;
12356;SDS011;6243;51.244;6.774;2023-02-23T14:47:14;28.47;;;18.57;;
12356;SDS011;6243;51.244;6.774;2023-02-23T14:49:42;28.53;;;18.23;;
12356;SDS011;6243;51.244;6.774;2023-02-23T14:52:12;25.03;;;16.93;;